Terminal Aerodrome Forecast
Issued by NWS Omaha/Valley, NE

Home | Current Version | Previous Version | Text Only | Print | Product List | Glossary Off
Versions: 1 2 3 4 5 6 7 8 9 10 11 12 13 14 15 16 17 18 19 20 21 22 23 24 25 26 27 28 29 30 31 32 33 34 35 36 37 38 39

000
FTUS43 KOAX 160925 AAB
TAFOFK
TAF AMD
KOFK 160925Z 1609/1706 VRB05KT 6SM BR SCT015 BKN050
      TEMPO 1609/1612 4SM BR BKN015
     FM161200 12005KT 6SM BR SCT015 BKN030
      TEMPO 1612/1615 4SM -TSRA SCT007 BKN025CB
     FM161800 11005KT P6SM BKN025
     FM162100 09006KT P6SM BKN040=

USA.gov is the U.S. government's official web portal to all federal, state and local government web resources and services.